createdAt,value
2018-10-06T00:00:37.178Z,7.45
2018-10-06T00:03:04.672Z,8.05
2018-10-06T00:05:32.158Z,8.15
2018-10-06T00:07:59.637Z,7.78
2018-10-06T00:10:27.145Z,7.45
2018-10-06T00:12:54.642Z,7.75
2018-10-06T00:15:22.131Z,8.23
2018-10-06T00:17:49.609Z,8.05
2018-10-06T00:20:17.081Z,8.63
2018-10-06T00:22:44.525Z,7.10
2018-10-06T00:25:11.985Z,7.97
2018-10-06T00:27:39.510Z,8.58
2018-10-06T00:30:07.133Z,8.40
2018-10-06T00:32:34.635Z,8.93
2018-10-06T00:35:02.145Z,8.55
2018-10-06T00:37:29.607Z,8.25
2018-10-06T00:39:57.075Z,8.23
2018-10-06T00:42:24.543Z,8.98
2018-10-06T00:44:51.992Z,7.97
2018-10-06T00:47:19.573Z,8.90
2018-10-06T00:49:47.045Z,8.95
2018-10-06T00:52:14.558Z,8.00
2018-10-06T00:54:42.000Z,8.75
2018-10-06T00:57:09.480Z,8.20
2018-10-06T00:59:36.915Z,7.42
2018-10-06T01:02:04.406Z,7.95
2018-10-06T01:04:31.870Z,8.05
2018-10-06T01:06:59.378Z,8.45
2018-10-06T01:09:26.985Z,8.65
2018-10-06T01:11:54.606Z,8.93
2018-10-06T01:14:22.248Z,7.83
2018-10-06T01:16:49.816Z,8.20
2018-10-06T01:19:17.490Z,8.08
2018-10-06T01:21:44.994Z,7.10
2018-10-06T01:24:12.550Z,7.15
2018-10-06T01:26:40.019Z,8.20
2018-10-06T01:29:07.509Z,7.90
2018-10-06T01:31:35.013Z,7.50
2018-10-06T01:34:02.521Z,7.55
2018-10-06T01:36:29.993Z,7.72
2018-10-06T01:38:57.489Z,8.33
2018-10-06T01:41:24.976Z,8.10
2018-10-06T01:43:52.461Z,8.43
2018-10-06T01:46:20.014Z,8.35
2018-10-06T01:48:47.486Z,8.30
2018-10-06T01:51:14.970Z,9.43
2018-10-06T01:53:42.484Z,9.10
2018-10-06T01:56:09.983Z,8.65
2018-10-06T01:58:37.440Z,9.40
2018-10-06T02:01:04.926Z,8.63
2018-10-06T02:03:32.457Z,9.03
2018-10-06T02:05:59.943Z,8.85
2018-10-06T02:08:27.407Z,9.50
2018-10-06T02:10:54.870Z,7.83
2018-10-06T02:13:22.350Z,8.35
2018-10-06T02:15:49.836Z,8.45
2018-10-06T02:18:17.317Z,8.23
2018-10-06T02:20:44.827Z,8.63
2018-10-06T02:23:12.294Z,7.95
2018-10-06T02:25:39.791Z,9.90
2018-10-06T02:28:07.290Z,7.65
2018-10-06T02:30:34.795Z,8.70
2018-10-06T02:33:02.361Z,8.55
2018-10-06T02:35:29.844Z,8.65
2018-10-06T02:37:57.323Z,8.43
2018-10-06T02:40:24.814Z,7.85
2018-10-06T02:42:52.318Z,8.00
2018-10-06T02:45:19.800Z,8.45
2018-10-06T02:47:47.296Z,7.97
2018-10-06T02:50:14.808Z,8.10
2018-10-06T02:52:42.280Z,8.85
2018-10-06T02:55:09.784Z,8.33
2018-10-06T02:57:37.326Z,7.80
2018-10-06T03:00:04.870Z,8.60
2018-10-06T03:02:32.405Z,7.75
2018-10-06T03:04:59.901Z,8.85
2018-10-06T03:07:27.455Z,10.48
2018-10-06T03:09:54.955Z,8.00
2018-10-06T03:12:22.487Z,9.50
2018-10-06T03:14:49.971Z,8.43
2018-10-06T03:17:17.466Z,8.03
2018-10-06T03:19:44.929Z,8.65
2018-10-06T03:22:12.453Z,8.15
2018-10-06T03:24:39.956Z,8.75
2018-10-06T03:27:07.431Z,9.13
2018-10-06T03:29:34.917Z,11.25
2018-10-06T03:32:02.413Z,8.63
2018-10-06T03:34:29.914Z,8.05
2018-10-06T03:36:57.374Z,8.45
2018-10-06T03:39:24.845Z,7.72
2018-10-06T03:41:52.328Z,8.05
2018-10-06T03:44:19.807Z,7.58
2018-10-06T03:46:47.333Z,9.13
2018-10-06T03:49:14.829Z,8.65
2018-10-06T03:51:42.283Z,9.25
2018-10-06T03:54:10.672Z,9.18
2018-10-06T03:56:39.185Z,8.55
2018-10-06T03:59:06.727Z,8.08
2018-10-06T04:01:34.205Z,8.78
2018-10-06T04:04:01.723Z,9.38
2018-10-06T04:06:29.467Z,8.05
2018-10-06T04:08:57.851Z,9.05
2018-10-06T04:11:25.315Z,7.70
2018-10-06T04:13:52.805Z,9.45
2018-10-06T04:16:20.252Z,8.10
2018-10-06T04:18:47.727Z,9.38
2018-10-06T04:21:15.244Z,7.72
2018-10-06T04:23:42.722Z,8.75
2018-10-06T04:26:10.240Z,8.90
2018-10-06T04:28:37.718Z,8.60
2018-10-06T04:31:05.196Z,10.40
2018-10-06T04:33:32.891Z,8.30
2018-10-06T04:36:00.425Z,8.83
2018-10-06T04:38:27.922Z,7.80
2018-10-06T04:40:55.417Z,8.68
2018-10-06T04:43:22.921Z,7.53
2018-10-06T04:45:50.435Z,9.13
2018-10-06T04:48:17.913Z,8.10
2018-10-06T04:50:45.466Z,8.23
2018-10-06T04:53:12.938Z,9.00
2018-10-06T04:55:40.442Z,9.35
2018-10-06T04:58:07.941Z,9.70
2018-10-06T05:00:35.427Z,9.45
2018-10-06T05:03:02.925Z,8.83
2018-10-06T05:05:30.491Z,9.63
2018-10-06T05:07:58.035Z,9.00
2018-10-06T05:10:25.558Z,8.38
2018-10-06T05:12:53.038Z,9.20
2018-10-06T05:15:20.580Z,9.20
2018-10-06T05:17:48.068Z,8.75
2018-10-06T05:20:15.554Z,8.80
2018-10-06T05:22:43.082Z,13.65
2018-10-06T05:25:10.578Z,11.10
2018-10-06T05:27:38.081Z,11.53
2018-10-06T05:30:05.673Z,11.63
2018-10-06T05:32:33.160Z,17.00
2018-10-06T05:35:00.645Z,19.92
2018-10-06T05:37:28.160Z,20.80
2018-10-06T05:39:55.637Z,16.85
2018-10-06T05:42:23.203Z,18.65
2018-10-06T05:44:50.700Z,17.32
2018-10-06T05:47:18.210Z,14.58
2018-10-06T05:49:45.728Z,11.15
2018-10-06T05:52:13.263Z,11.05
2018-10-06T05:54:40.777Z,12.82
2018-10-06T05:57:08.350Z,11.45
2018-10-06T05:59:35.909Z,11.78
2018-10-06T06:02:03.455Z,10.85
2018-10-06T06:04:30.989Z,11.90
2018-10-06T06:06:58.516Z,9.85
2018-10-06T06:09:26.023Z,10.43
2018-10-06T06:11:53.500Z,10.85
2018-10-06T06:14:21.068Z,11.78
2018-10-06T06:16:48.570Z,11.80
2018-10-06T06:19:16.053Z,11.78
2018-10-06T06:21:43.602Z,11.78
2018-10-06T06:24:11.203Z,11.03
2018-10-06T06:26:38.740Z,12.85
2018-10-06T06:29:06.245Z,14.35
2018-10-06T06:31:33.913Z,33.83
2018-10-06T06:34:01.383Z,16.35
2018-10-06T06:36:28.835Z,13.43
2018-10-06T06:38:56.348Z,13.98
2018-10-06T06:41:23.879Z,11.28
2018-10-06T06:43:51.409Z,12.43
2018-10-06T06:46:18.873Z,11.63
2018-10-06T06:48:46.423Z,12.98
2018-10-06T06:51:13.960Z,18.65
2018-10-06T06:53:41.437Z,10.93
2018-10-06T06:56:08.995Z,9.60
2018-10-06T06:58:36.508Z,8.53
2018-10-06T07:01:04.051Z,11.57
2018-10-06T07:03:31.562Z,11.37
2018-10-06T07:05:59.077Z,10.20
2018-10-06T07:08:26.556Z,14.00
2018-10-06T07:10:54.070Z,12.17
2018-10-06T07:13:21.550Z,12.07
2018-10-06T07:15:49.120Z,10.83
2018-10-06T07:18:16.723Z,9.80
2018-10-06T07:20:44.216Z,9.07
2018-10-06T07:23:11.722Z,9.60
2018-10-06T07:25:39.283Z,10.00
2018-10-06T07:28:06.853Z,9.77
2018-10-06T07:30:34.441Z,9.10
2018-10-06T07:33:01.997Z,8.70
2018-10-06T07:35:29.603Z,8.93
2018-10-06T07:37:57.127Z,9.60
2018-10-06T07:40:24.609Z,8.40
2018-10-06T07:42:52.107Z,9.00
2018-10-06T07:45:19.762Z,8.20
2018-10-06T07:47:47.235Z,8.63
2018-10-06T07:50:14.737Z,8.03
2018-10-06T07:52:42.269Z,7.60
2018-10-06T07:55:09.821Z,8.40
2018-10-06T07:57:37.282Z,8.23
2018-10-06T08:00:04.835Z,8.30
2018-10-06T08:02:32.364Z,10.23
2018-10-06T08:05:00.015Z,9.80
2018-10-06T08:07:27.521Z,9.63
2018-10-06T08:09:55.050Z,8.87
2018-10-06T08:12:22.558Z,8.30
2018-10-06T08:14:50.044Z,8.10
2018-10-06T08:17:17.685Z,7.90
2018-10-06T08:19:45.218Z,7.03
2018-10-06T08:22:12.774Z,7.03
2018-10-06T08:24:40.285Z,9.23
2018-10-06T08:27:07.876Z,6.30
2018-10-06T08:29:35.454Z,7.00
2018-10-06T08:32:02.967Z,6.87
2018-10-06T08:34:30.509Z,7.53
2018-10-06T08:36:58.049Z,7.03
2018-10-06T08:39:25.577Z,8.00
2018-10-06T08:41:53.060Z,7.40
2018-10-06T08:44:20.589Z,6.77
2018-10-06T08:46:48.135Z,6.40
2018-10-06T08:49:15.670Z,6.30
2018-10-06T08:51:43.491Z,5.63
2018-10-06T08:54:11.023Z,5.57
2018-10-06T08:56:38.523Z,5.67
2018-10-06T08:59:05.993Z,5.30
2018-10-06T09:01:33.488Z,5.80
2018-10-06T09:04:01.030Z,5.20
2018-10-06T09:06:28.574Z,5.63
2018-10-06T09:08:56.080Z,5.67
2018-10-06T09:11:23.630Z,5.53
2018-10-06T09:13:51.103Z,6.40
2018-10-06T09:16:18.638Z,7.00
2018-10-06T09:18:46.159Z,6.57
2018-10-06T09:21:13.670Z,6.83
2018-10-06T09:23:41.173Z,6.23
2018-10-06T09:26:08.727Z,5.33
2018-10-06T09:28:36.205Z,5.70
2018-10-06T09:31:03.721Z,5.60
2018-10-06T09:33:31.305Z,5.17
2018-10-06T09:35:58.814Z,5.80
2018-10-06T09:38:26.307Z,5.20
2018-10-06T09:40:53.799Z,5.30
2018-10-06T09:43:21.316Z,4.83
2018-10-06T09:45:48.852Z,4.50
2018-10-06T09:48:16.460Z,4.70
2018-10-06T09:50:44.031Z,4.60
2018-10-06T09:53:11.507Z,5.87
2018-10-06T09:55:39.026Z,4.23
2018-10-06T09:58:06.654Z,4.40
2018-10-06T10:00:39.882Z,4.40
2018-10-06T10:03:13.155Z,4.50
2018-10-06T10:05:47.384Z,6.40
2018-10-06T10:08:14.837Z,4.20
2018-10-06T10:10:42.371Z,4.40
2018-10-06T10:13:09.942Z,4.43
2018-10-06T10:15:37.456Z,4.33
2018-10-06T10:18:05.221Z,4.37
2018-10-06T10:20:32.599Z,3.50
2018-10-06T10:23:01.371Z,4.67
2018-10-06T10:25:29.066Z,4.80
2018-10-06T10:27:56.597Z,4.17
2018-10-06T10:30:24.101Z,4.07
2018-10-06T10:32:51.731Z,3.50
2018-10-06T10:35:19.313Z,3.87
2018-10-06T10:37:46.923Z,4.17
2018-10-06T10:40:14.575Z,3.30
2018-10-06T10:42:42.133Z,4.07
2018-10-06T10:45:10.059Z,3.40
2018-10-06T10:47:37.858Z,3.57
2018-10-06T10:50:05.467Z,3.23
2018-10-06T10:52:32.957Z,3.40
2018-10-06T10:55:00.492Z,3.90
2018-10-06T10:57:28.443Z,3.63
2018-10-06T10:59:56.056Z,3.10
2018-10-06T11:02:23.545Z,3.83
2018-10-06T11:04:51.237Z,3.20
2018-10-06T11:07:18.804Z,3.23
2018-10-06T11:09:46.460Z,2.97
2018-10-06T11:12:14.016Z,3.37
2018-10-06T11:14:42.284Z,2.90
2018-10-06T11:17:09.857Z,3.37
2018-10-06T11:19:37.396Z,2.43
2018-10-06T11:22:04.912Z,2.47
2018-10-06T11:24:32.424Z,2.60
2018-10-06T11:27:00.019Z,3.07
2018-10-06T11:29:27.566Z,3.30
2018-10-06T11:31:55.391Z,2.83
2018-10-06T11:34:23.150Z,2.87
2018-10-06T11:36:50.754Z,3.17
2018-10-06T11:39:18.339Z,3.20
2018-10-06T11:41:46.291Z,2.67
2018-10-06T11:44:14.598Z,2.10
2018-10-06T11:46:42.251Z,2.27
2018-10-06T11:49:09.862Z,2.30
2018-10-06T11:51:37.600Z,2.37
2018-10-06T11:54:05.312Z,2.83
2018-10-06T11:56:32.933Z,4.00
2018-10-06T11:59:00.442Z,3.20
2018-10-06T12:01:28.030Z,2.47
2018-10-06T12:03:55.623Z,2.90
2018-10-06T12:06:23.237Z,6.00
2018-10-06T12:08:50.816Z,2.70
2018-10-06T12:11:18.351Z,3.20
2018-10-06T12:13:45.873Z,2.50
2018-10-06T12:16:13.428Z,3.13
2018-10-06T12:18:40.975Z,2.43
2018-10-06T12:21:08.487Z,2.60
2018-10-06T12:23:36.011Z,9.10
2018-10-06T12:26:03.605Z,4.97
2018-10-06T12:28:31.249Z,9.27
2018-10-06T12:30:59.413Z,6.43
2018-10-06T12:33:26.947Z,6.97
2018-10-06T12:35:54.527Z,5.73
2018-10-06T12:38:22.130Z,4.30
2018-10-06T12:40:49.700Z,5.70
2018-10-06T12:43:17.270Z,3.20
2018-10-06T12:45:45.646Z,3.20
2018-10-06T12:48:13.500Z,3.43
2018-10-06T12:50:41.005Z,3.27
2018-10-06T12:53:08.566Z,3.03
2018-10-06T12:55:36.124Z,3.10
2018-10-06T12:58:03.680Z,3.00
2018-10-06T13:00:31.222Z,3.17
2018-10-06T13:02:58.756Z,3.67
2018-10-06T13:05:26.491Z,3.87
2018-10-06T13:07:54.103Z,4.33
2018-10-06T13:10:21.744Z,3.10
2018-10-06T13:12:49.384Z,3.50
2018-10-06T13:15:17.472Z,2.97
2018-10-06T13:17:45.109Z,3.30
2018-10-06T13:20:12.645Z,3.47
2018-10-06T13:22:40.197Z,3.30
2018-10-06T13:25:07.752Z,3.63
2018-10-06T13:27:36.018Z,5.07
2018-10-06T13:30:03.734Z,5.07
2018-10-06T13:32:31.223Z,4.40
2018-10-06T13:34:58.784Z,3.87
2018-10-06T13:37:27.113Z,4.20
2018-10-06T13:39:54.978Z,4.30
2018-10-06T13:42:22.468Z,5.10
2018-10-06T13:44:49.993Z,4.23
2018-10-06T13:47:17.614Z,4.30
2018-10-06T13:49:45.290Z,4.17
2018-10-06T13:52:12.905Z,3.43
2018-10-06T13:54:40.414Z,3.17
2018-10-06T13:57:08.011Z,3.30
2018-10-06T13:59:35.591Z,3.80
2018-10-06T14:02:03.138Z,3.93
2018-10-06T14:04:30.784Z,4.63
2018-10-06T14:06:58.381Z,4.50
2018-10-06T14:09:25.932Z,4.97
2018-10-06T14:11:53.524Z,5.10
2018-10-06T14:14:21.085Z,5.57
2018-10-06T14:16:48.599Z,5.03
2018-10-06T14:19:16.150Z,5.23
2018-10-06T14:21:43.744Z,6.57
2018-10-06T14:24:11.225Z,6.10
2018-10-06T14:26:38.780Z,5.37
2018-10-06T14:29:06.322Z,4.90
2018-10-06T14:31:33.812Z,5.43
2018-10-06T14:34:01.323Z,5.83
2018-10-06T14:36:28.836Z,5.80
2018-10-06T14:38:56.442Z,5.90
2018-10-06T14:41:24.096Z,5.80
2018-10-06T14:43:51.565Z,6.00
2018-10-06T14:46:19.042Z,6.03
2018-10-06T14:48:46.593Z,6.10
2018-10-06T14:51:14.098Z,6.40
2018-10-06T14:53:41.619Z,5.90
2018-10-06T14:56:09.143Z,7.00
2018-10-06T14:58:36.678Z,6.77
2018-10-06T15:01:04.251Z,6.33
2018-10-06T15:03:31.958Z,6.00
2018-10-06T15:06:01.311Z,5.63
2018-10-06T15:08:28.852Z,6.67
2018-10-06T15:10:56.423Z,6.70
2018-10-06T15:13:23.963Z,7.13
2018-10-06T15:15:51.478Z,6.67
2018-10-06T15:18:18.977Z,6.17
2018-10-06T15:20:46.448Z,6.87
2018-10-06T15:23:13.948Z,7.10
2018-10-06T15:25:41.428Z,7.00
2018-10-06T15:28:08.961Z,6.57
2018-10-06T15:30:36.491Z,7.33
2018-10-06T15:33:04.002Z,14.03
2018-10-06T15:35:31.557Z,17.30
2018-10-06T15:37:59.053Z,14.80
2018-10-06T15:40:26.644Z,11.33
2018-10-06T15:42:54.168Z,8.80
2018-10-06T15:45:21.707Z,7.57
2018-10-06T15:47:49.294Z,7.20
2018-10-06T15:50:16.800Z,8.13
2018-10-06T15:52:44.323Z,12.50
2018-10-06T15:55:11.891Z,9.57
2018-10-06T15:57:39.436Z,10.60
2018-10-06T16:00:07.006Z,11.10
2018-10-06T16:02:34.610Z,11.30
2018-10-06T16:05:02.073Z,10.90
2018-10-06T16:07:29.616Z,11.93
2018-10-06T16:09:58.732Z,11.13
2018-10-06T16:12:26.373Z,11.07
2018-10-06T16:14:54.042Z,16.17
2018-10-06T16:17:21.980Z,13.53
2018-10-06T16:19:49.805Z,12.07
2018-10-06T16:22:17.361Z,11.33
2018-10-06T16:24:45.077Z,12.80
2018-10-06T16:27:12.794Z,10.87
2018-10-06T16:29:40.281Z,12.40
2018-10-06T16:32:08.231Z,12.10
2018-10-06T16:34:35.757Z,10.50
2018-10-06T16:37:03.375Z,11.50
2018-10-06T16:39:30.839Z,10.40
2018-10-06T16:41:58.697Z,9.97
2018-10-06T16:44:26.221Z,11.03
2018-10-06T16:46:53.749Z,11.57
2018-10-06T16:49:21.257Z,12.73
2018-10-06T16:51:48.849Z,18.93
2018-10-06T16:54:16.329Z,19.67
2018-10-06T16:56:43.963Z,24.00
2018-10-06T16:59:11.589Z,15.53
2018-10-06T17:01:39.150Z,15.00
2018-10-06T17:04:06.694Z,12.87
2018-10-06T17:06:34.250Z,12.30
2018-10-06T17:09:01.780Z,14.27
2018-10-06T17:11:29.301Z,13.13
2018-10-06T17:13:56.776Z,13.60
2018-10-06T17:16:24.405Z,14.93
2018-10-06T17:18:51.965Z,18.20
2018-10-06T17:21:19.522Z,21.07
2018-10-06T17:23:47.114Z,24.27
2018-10-06T17:26:14.665Z,19.13
2018-10-06T17:28:43.136Z,15.70
2018-10-06T17:31:10.690Z,14.87
2018-10-06T17:33:38.191Z,21.00
2018-10-06T17:36:05.838Z,14.93
2018-10-06T17:38:33.811Z,13.40
2018-10-06T17:41:01.427Z,14.73
2018-10-06T17:43:30.111Z,13.87
2018-10-06T17:45:58.033Z,13.47
2018-10-06T17:48:25.678Z,13.23
2018-10-06T17:50:53.377Z,12.77
2018-10-06T17:53:20.766Z,13.57
2018-10-06T17:55:48.697Z,12.77
2018-10-06T17:58:16.494Z,13.43
2018-10-06T18:00:43.980Z,13.67
2018-10-06T18:03:12.727Z,12.50
2018-10-06T18:05:40.911Z,14.23
2018-10-06T18:08:08.466Z,13.50
2018-10-06T18:10:36.024Z,12.67
2018-10-06T18:13:03.688Z,13.23
2018-10-06T18:15:31.258Z,12.93
2018-10-06T18:17:58.996Z,14.93
2018-10-06T18:20:26.885Z,13.47
2018-10-06T18:22:54.766Z,11.40
2018-10-06T18:25:22.321Z,13.10
2018-10-06T18:27:49.960Z,13.07
2018-10-06T18:30:17.492Z,13.70
2018-10-06T18:32:45.088Z,13.30
2018-10-06T18:35:12.667Z,13.10
2018-10-06T18:37:40.251Z,13.87
2018-10-06T18:40:07.895Z,13.63
2018-10-06T18:42:36.071Z,12.53
2018-10-06T18:45:04.427Z,11.47
2018-10-06T18:47:32.042Z,12.28
2018-10-06T18:49:59.824Z,12.83
2018-10-06T18:52:27.540Z,12.80
2018-10-06T18:54:55.029Z,13.20
2018-10-06T18:57:23.072Z,12.97
2018-10-06T18:59:51.222Z,12.15
2018-10-06T19:02:18.788Z,11.33
2018-10-06T19:04:46.372Z,11.90
2018-10-06T19:07:14.059Z,11.90
2018-10-06T19:09:41.642Z,11.60
2018-10-06T19:12:09.136Z,12.33
2018-10-06T19:14:39.299Z,11.43
2018-10-06T19:17:06.880Z,12.30
2018-10-06T19:19:34.546Z,12.30
2018-10-06T19:22:02.125Z,11.90
2018-10-06T19:24:29.679Z,11.50
2018-10-06T19:26:57.194Z,13.10
2018-10-06T19:29:24.743Z,11.60
2018-10-06T19:31:52.364Z,11.13
2018-10-06T19:34:19.927Z,11.47
2018-10-06T19:36:47.531Z,10.60
2018-10-06T19:39:15.049Z,11.30
2018-10-06T19:41:42.669Z,11.27
2018-10-06T19:44:10.176Z,11.20
2018-10-06T19:46:37.705Z,10.73
2018-10-06T19:49:05.328Z,11.97
2018-10-06T19:51:33.025Z,10.17
2018-10-06T19:54:00.628Z,10.10
2018-10-06T19:56:28.231Z,11.07
2018-10-06T19:58:55.836Z,10.53
2018-10-06T20:01:23.324Z,11.50
2018-10-06T20:03:50.934Z,10.90
2018-10-06T20:06:18.785Z,11.27
2018-10-06T20:08:46.467Z,11.60
2018-10-06T20:11:14.049Z,11.38
2018-10-06T20:13:41.730Z,11.60
2018-10-06T20:16:09.292Z,10.60
2018-10-06T20:18:36.843Z,9.90
2018-10-06T20:21:04.391Z,10.53
2018-10-06T20:23:31.930Z,10.00
2018-10-06T20:25:59.475Z,10.03
2018-10-06T20:28:26.964Z,10.17
2018-10-06T20:30:54.468Z,10.13
2018-10-06T20:33:21.983Z,11.00
2018-10-06T20:35:49.494Z,10.20
2018-10-06T20:38:17.227Z,11.10
2018-10-06T20:40:44.804Z,10.63
2018-10-06T20:43:12.304Z,10.60
2018-10-06T20:45:39.830Z,10.90
2018-10-06T20:48:07.754Z,10.30
2018-10-06T20:50:35.354Z,10.20
2018-10-06T20:53:03.115Z,11.30
2018-10-06T20:55:30.906Z,10.10
2018-10-06T20:57:58.444Z,10.20
2018-10-06T21:00:25.950Z,11.00
2018-10-06T21:02:53.506Z,9.90
2018-10-06T21:05:21.001Z,10.40
2018-10-06T21:07:48.545Z,9.90
2018-10-06T21:10:16.002Z,10.60
2018-10-06T21:12:43.508Z,10.32
2018-10-06T21:15:11.055Z,10.53
2018-10-06T21:17:38.548Z,10.50
2018-10-06T21:20:06.060Z,8.83
2018-10-06T21:22:33.523Z,10.80
2018-10-06T21:25:00.984Z,11.10
2018-10-06T21:27:28.445Z,10.95
2018-10-06T21:29:55.986Z,11.48
2018-10-06T21:32:23.522Z,10.53
2018-10-06T21:34:51.004Z,11.05
2018-10-06T21:37:18.615Z,10.28
2018-10-06T21:39:46.075Z,10.50
2018-10-06T21:42:13.539Z,9.60
2018-10-06T21:44:41.027Z,10.70
2018-10-06T21:47:08.516Z,11.00
2018-10-06T21:49:35.968Z,10.60
2018-10-06T21:52:03.666Z,10.95
2018-10-06T21:54:31.404Z,10.72
2018-10-06T21:56:59.039Z,10.08
2018-10-06T21:59:26.580Z,10.60
2018-10-06T22:01:54.081Z,9.98
2018-10-06T22:04:21.628Z,10.20
2018-10-06T22:06:49.253Z,9.88
2018-10-06T22:09:16.834Z,9.40
2018-10-06T22:11:44.430Z,10.50
2018-10-06T22:14:12.017Z,9.08
2018-10-06T22:16:39.589Z,11.43
2018-10-06T22:19:07.135Z,9.80
2018-10-06T22:21:34.754Z,8.60
2018-10-06T22:24:02.326Z,9.20
2018-10-06T22:26:29.914Z,9.75
2018-10-06T22:28:58.688Z,9.40
2018-10-06T22:31:26.277Z,8.93
2018-10-06T22:33:53.835Z,8.98
2018-10-06T22:36:21.333Z,9.90
2018-10-06T22:38:48.866Z,9.30
2018-10-06T22:41:16.426Z,9.40
2018-10-06T22:43:44.093Z,9.63
2018-10-06T22:46:11.680Z,9.95
2018-10-06T22:48:39.278Z,8.18
2018-10-06T22:51:06.942Z,8.65
2018-10-06T22:53:34.440Z,9.65
2018-10-06T22:56:02.030Z,9.58
2018-10-06T22:58:29.550Z,9.93
2018-10-06T23:00:57.130Z,9.95
2018-10-06T23:03:24.664Z,8.95
2018-10-06T23:05:52.201Z,8.98
2018-10-06T23:08:19.801Z,9.68
2018-10-06T23:10:47.344Z,9.50
2018-10-06T23:13:14.877Z,8.70
2018-10-06T23:15:42.409Z,8.40
2018-10-06T23:18:09.952Z,8.95
2018-10-06T23:20:37.463Z,8.73
2018-10-06T23:23:05.046Z,8.40
2018-10-06T23:25:32.526Z,8.03
2018-10-06T23:28:00.025Z,9.20
2018-10-06T23:30:27.500Z,9.50
2018-10-06T23:32:54.967Z,9.63
2018-10-06T23:35:22.521Z,10.95
2018-10-06T23:37:50.001Z,10.05
2018-10-06T23:40:17.525Z,9.78
2018-10-06T23:42:45.019Z,9.43
2018-10-06T23:45:12.473Z,8.25
2018-10-06T23:47:39.989Z,8.63
2018-10-06T23:50:07.830Z,8.95
2018-10-06T23:52:35.414Z,9.15
2018-10-06T23:55:02.950Z,9.53
2018-10-06T23:57:30.448Z,9.05
2018-10-06T23:59:57.986Z,8.58
